createdAt,value
2023-02-24T00:00:30.850Z,50
2023-02-24T00:01:32.864Z,50.2
2023-02-24T00:02:36.027Z,50.3
2023-02-24T00:03:37.126Z,50.3
2023-02-24T00:04:40.905Z,50.4
2023-02-24T00:05:44.648Z,50.7
2023-02-24T00:06:47.727Z,50.7
2023-02-24T00:07:52.492Z,50.8
2023-02-24T00:08:56.010Z,50.9
2023-02-24T00:09:58.405Z,50.8
2023-02-24T00:11:01.466Z,50.4
2023-02-24T00:12:04.579Z,50.5
2023-02-24T00:13:07.967Z,50.5
2023-02-24T00:14:10.284Z,50.7
2023-02-24T00:15:14.047Z,50.9
2023-02-24T00:16:17.049Z,51
2023-02-24T00:17:19.525Z,51.1
2023-02-24T00:18:23.785Z,50.9
2023-02-24T00:19:25.878Z,51.2
2023-02-24T00:20:27.125Z,51
2023-02-24T00:21:30.191Z,51
2023-02-24T00:22:31.071Z,51.1
2023-02-24T00:23:32.783Z,51.4
2023-02-24T00:24:35.928Z,51.4
2023-02-24T00:25:38.883Z,51.4
2023-02-24T00:26:42.266Z,51.3
2023-02-24T00:27:45.908Z,51.2
2023-02-24T00:28:48.280Z,51.1
2023-02-24T00:29:51.346Z,51.1
2023-02-24T00:30:54.927Z,51.1
2023-02-24T00:31:56.128Z,51.1
2023-02-24T00:32:58.250Z,51.1
2023-02-24T00:34:00.169Z,51.2
2023-02-24T00:35:02.526Z,51.1
2023-02-24T00:36:04.192Z,51.2
2023-02-24T00:37:06.109Z,51.2
2023-02-24T00:38:10.031Z,51.1
2023-02-24T00:39:12.361Z,51
2023-02-24T00:40:15.712Z,51
2023-02-24T00:41:18.482Z,51.1
2023-02-24T00:42:22.413Z,51.2
2023-02-24T00:43:25.452Z,51.2
2023-02-24T00:44:28.253Z,51.2
2023-02-24T00:45:30.425Z,51.2
2023-02-24T00:46:34.014Z,51.2
2023-02-24T00:47:36.834Z,51.2
2023-02-24T00:48:39.372Z,51.3
2023-02-24T00:49:42.981Z,51.4
2023-02-24T00:50:45.258Z,51.5
2023-02-24T00:51:46.969Z,51.3
2023-02-24T00:52:49.354Z,51.5
2023-02-24T00:53:50.034Z,51.5
2023-02-24T00:54:53.144Z,51.5
2023-02-24T00:55:55.255Z,51.3
2023-02-24T00:56:59.043Z,51.2
2023-02-24T00:58:02.637Z,51.2
2023-02-24T00:59:05.678Z,51.2
2023-02-24T01:00:07.227Z,51.2
2023-02-24T01:01:09.487Z,51.1
2023-02-24T01:02:12.105Z,51.2
2023-02-24T01:03:14.737Z,51.3
2023-02-24T01:04:16.177Z,51.2
2023-02-24T01:05:18.094Z,51.2
2023-02-24T01:06:20.501Z,51.2
2023-02-24T01:07:23.872Z,51.3
2023-02-24T01:08:26.239Z,51.4
2023-02-24T01:09:27.153Z,51.5
2023-02-24T01:10:29.397Z,51.7
2023-02-24T01:11:32.836Z,51.8
2023-02-24T01:12:35.353Z,52
2023-02-24T01:13:38.994Z,51.9
2023-02-24T01:14:42.934Z,52
2023-02-24T01:15:45.146Z,52.2
2023-02-24T01:16:48.955Z,52.4
2023-02-24T01:17:51.261Z,52.6
2023-02-24T01:18:52.085Z,52.8
2023-02-24T01:19:54.924Z,52.9
2023-02-24T01:20:57.034Z,53
2023-02-24T01:22:00.097Z,53
2023-02-24T01:23:02.495Z,53.3
2023-02-24T01:24:06.218Z,53.5
2023-02-24T01:25:09.450Z,53.5
2023-02-24T01:26:12.817Z,53.7
2023-02-24T01:27:16.475Z,53.8
2023-02-24T01:28:19.573Z,54
2023-02-24T01:29:22.953Z,54
2023-02-24T01:30:26.382Z,54.3
2023-02-24T01:31:29.765Z,54.5
2023-02-24T01:32:32.614Z,54.7
2023-02-24T01:33:35.861Z,54.7
2023-02-24T01:34:39.734Z,54.9
2023-02-24T01:35:43.513Z,55.1
2023-02-24T01:36:46.753Z,55.2
2023-02-24T01:37:49.831Z,55.2
2023-02-24T01:38:54.514Z,55.2
2023-02-24T01:39:56.538Z,55.3
2023-02-24T01:40:59.996Z,55.5
2023-02-24T01:42:01.319Z,55.5
2023-02-24T01:43:02.995Z,55.5
2023-02-24T01:44:05.980Z,55.5
2023-02-24T01:45:08.657Z,55.4
2023-02-24T01:46:11.434Z,55.4
2023-02-24T01:47:13.952Z,55.6
2023-02-24T01:48:16.743Z,56.1
2023-02-24T01:49:22.138Z,56.8
2023-02-24T01:50:24.939Z,56.9
2023-02-24T01:51:27.568Z,56.9
2023-02-24T01:52:31.853Z,56.7
2023-02-24T01:53:34.557Z,56.7
2023-02-24T01:54:36.058Z,56.7
2023-02-24T01:55:38.907Z,56.5
2023-02-24T01:56:40.159Z,56.2
2023-02-24T01:57:42.436Z,56.2
2023-02-24T01:58:44.608Z,56.1
2023-02-24T01:59:47.418Z,56
2023-02-24T02:00:49.537Z,55.9
2023-02-24T02:01:52.854Z,55.8
2023-02-24T02:02:56.173Z,55.6
2023-02-24T02:06:03.950Z,55.2
2023-02-24T02:07:06.175Z,55.1
2023-02-24T02:08:09.671Z,54.8
2023-02-24T02:09:11.122Z,55.1
2023-02-24T02:10:14.490Z,55.2
2023-02-24T02:11:17.182Z,55.2
2023-02-24T02:12:19.737Z,55.4
2023-02-24T02:13:23.866Z,55.4
2023-02-24T02:14:27.752Z,55.3
2023-02-24T02:15:29.701Z,55.4
2023-02-24T02:16:33.290Z,55.3
2023-02-24T02:17:37.029Z,55.4
2023-02-24T02:18:42.000Z,55.4
2023-02-24T02:19:45.780Z,55.3
2023-02-24T02:20:49.428Z,54.9
2023-02-24T02:21:53.740Z,55.3
2023-02-24T02:22:57.965Z,55.4
2023-02-24T02:23:59.116Z,55.4
2023-02-24T02:25:02.400Z,55.6
2023-02-24T02:26:06.628Z,55.8
2023-02-24T02:27:11.163Z,55.9
2023-02-24T02:28:14.565Z,56.3
2023-02-24T02:29:17.679Z,56.6
2023-02-24T02:30:19.140Z,56.5
2023-02-24T02:31:21.822Z,56.4
2023-02-24T02:32:24.670Z,56.3
2023-02-24T02:33:28.961Z,56.2
2023-02-24T02:34:31.774Z,56.2
2023-02-24T02:35:36.148Z,56.2
2023-02-24T02:36:39.340Z,56.2
2023-02-24T02:37:42.784Z,56
2023-02-24T02:38:44.644Z,56.1
2023-02-24T02:39:49.820Z,56.1
2023-02-24T02:40:53.525Z,56.2
2023-02-24T02:41:58.835Z,56.1
2023-02-24T02:43:02.943Z,55.9
2023-02-24T02:44:06.463Z,55.8
2023-02-24T02:45:09.999Z,55.8
2023-02-24T02:46:13.831Z,55.8
2023-02-24T02:47:17.079Z,55.4
2023-02-24T02:48:18.650Z,55.5
2023-02-24T02:49:23.106Z,55.6
2023-02-24T02:50:24.248Z,55.6
2023-02-24T02:51:27.198Z,55.6
2023-02-24T02:52:27.899Z,55.6
2023-02-24T02:53:30.237Z,55.7
2023-02-24T02:54:33.922Z,55.7
2023-02-24T02:55:38.803Z,55.7
2023-02-24T02:56:43.794Z,55.8
2023-02-24T02:57:45.255Z,55.8
2023-02-24T02:58:51.899Z,55.9
2023-02-24T02:59:53.214Z,56.1
2023-02-24T03:00:56.682Z,56
2023-02-24T03:02:01.476Z,56.1
2023-02-24T03:03:04.125Z,56.3
2023-02-24T03:04:05.235Z,56.2
2023-02-24T03:05:09.053Z,55.4
2023-02-24T03:06:11.699Z,55.8
2023-02-24T03:07:15.861Z,55.9
2023-02-24T03:08:18.893Z,55.9
2023-02-24T03:09:21.721Z,55.8
2023-02-24T03:10:23.403Z,55.9
2023-02-24T03:11:26.054Z,56
2023-02-24T03:12:28.605Z,56
2023-02-24T03:13:33.253Z,56
2023-02-24T03:14:36.098Z,56
2023-02-24T03:15:38.494Z,56
2023-02-24T03:16:43.239Z,56.1
2023-02-24T03:17:46.471Z,56
2023-02-24T03:18:48.134Z,56
2023-02-24T03:19:51.133Z,55.9
2023-02-24T03:20:53.595Z,55.9
2023-02-24T03:21:55.896Z,55.9
2023-02-24T03:22:59.009Z,55.9
2023-02-24T03:24:02.980Z,55.9
2023-02-24T03:25:05.643Z,56.1
2023-02-24T03:26:08.714Z,56.2
2023-02-24T03:27:15.136Z,56.2
2023-02-24T03:28:16.034Z,56.5
2023-02-24T03:29:20.376Z,56.4
2023-02-24T03:30:21.156Z,56.5
2023-02-24T03:31:23.916Z,56.6
2023-02-24T03:32:27.573Z,56.7
2023-02-24T03:33:33.335Z,56.7
2023-02-24T03:34:40.139Z,56.8
2023-02-24T03:35:44.637Z,56.8
2023-02-24T03:36:46.135Z,56.9
2023-02-24T03:37:47.278Z,56.9
2023-02-24T03:38:48.457Z,56.9
2023-02-24T03:39:52.036Z,56.9
2023-02-24T03:40:53.275Z,56.9
2023-02-24T03:41:54.215Z,56.9
2023-02-24T03:42:55.356Z,57.1
2023-02-24T03:43:58.942Z,57.2
2023-02-24T03:45:00.438Z,57.4
2023-02-24T03:46:02.276Z,57.5
2023-02-24T03:47:06.341Z,57.5
2023-02-24T03:48:10.996Z,57.6
2023-02-24T03:49:12.377Z,57.6
2023-02-24T03:50:16.044Z,57.9
2023-02-24T03:51:23.920Z,57.8
2023-02-24T03:52:25.594Z,57.4
2023-02-24T03:53:28.995Z,57.5
2023-02-24T03:54:30.574Z,57.5
2023-02-24T03:55:32.295Z,57.8
2023-02-24T03:56:35.922Z,58
2023-02-24T03:57:39.703Z,58.1
2023-02-24T03:58:44.015Z,58
2023-02-24T03:59:47.334Z,57.8
2023-02-24T04:00:51.395Z,57.7
2023-02-24T04:01:55.079Z,57.7
2023-02-24T04:03:00.722Z,57.6
2023-02-24T04:04:05.734Z,57.5
2023-02-24T04:05:09.034Z,57.5
2023-02-24T04:06:13.335Z,57.6
2023-02-24T04:07:16.432Z,57.9
2023-02-24T04:08:18.103Z,57.4
2023-02-24T04:09:22.201Z,58
2023-02-24T04:10:23.334Z,58.1
2023-02-24T04:11:27.296Z,58.4
2023-02-24T04:12:31.875Z,58.5
2023-02-24T04:13:35.022Z,58.4
2023-02-24T04:14:38.175Z,58.3
2023-02-24T04:15:39.243Z,58.3
2023-02-24T04:16:41.732Z,58.4
2023-02-24T04:17:45.880Z,58.4
2023-02-24T04:18:49.399Z,58.4
2023-02-24T04:19:55.501Z,58.6
2023-02-24T04:20:59.832Z,58.8
2023-02-24T04:22:02.470Z,59
2023-02-24T04:23:05.854Z,59.2
2023-02-24T04:24:10.821Z,59.2
2023-02-24T04:25:14.375Z,59
2023-02-24T04:26:18.735Z,59.2
2023-02-24T04:27:24.065Z,59.2
2023-02-24T04:28:29.134Z,59.1
2023-02-24T04:29:32.695Z,59.1
2023-02-24T04:30:36.380Z,59.4
2023-02-24T04:31:39.989Z,59.5
2023-02-24T04:32:42.193Z,59.6
2023-02-24T04:33:45.417Z,59.9
2023-02-24T04:34:47.054Z,60
2023-02-24T04:35:50.335Z,60
2023-02-24T04:36:52.833Z,60
2023-02-24T04:37:57.857Z,59.9
2023-02-24T04:39:00.828Z,60.3
2023-02-24T04:40:02.914Z,60.5
2023-02-24T04:41:05.842Z,60.5
2023-02-24T04:42:09.864Z,60.7
2023-02-24T04:43:13.435Z,61.1
2023-02-24T04:44:17.518Z,61.2
2023-02-24T04:45:20.843Z,61.3
2023-02-24T04:46:24.638Z,61.4
2023-02-24T04:47:28.909Z,61.6
2023-02-24T04:48:32.233Z,61.7
2023-02-24T04:49:33.280Z,61.8
2023-02-24T04:50:36.714Z,62.1
2023-02-24T04:51:39.774Z,62.1
2023-02-24T04:52:44.415Z,62.4
2023-02-24T04:53:48.203Z,62.5
2023-02-24T04:54:50.109Z,62.7
2023-02-24T04:55:52.314Z,62.3
2023-02-24T04:56:56.958Z,62.8
2023-02-24T04:57:59.904Z,63.1
2023-02-24T04:59:03.077Z,63.3
2023-02-24T05:00:09.502Z,63.4
2023-02-24T05:01:14.305Z,63.4
2023-02-24T05:02:20.151Z,63.2
2023-02-24T05:03:22.917Z,63
2023-02-24T05:04:24.694Z,63
2023-02-24T05:05:28.339Z,62.9
2023-02-24T05:06:31.596Z,62.9
2023-02-24T05:07:36.100Z,62.8
2023-02-24T05:08:41.182Z,62.6
2023-02-24T05:09:45.556Z,62.3
2023-02-24T05:10:49.216Z,62.2
2023-02-24T05:11:52.085Z,62.3
2023-02-24T05:12:54.639Z,62.3
2023-02-24T05:13:59.797Z,62.4
2023-02-24T05:15:04.977Z,62.4
2023-02-24T05:16:11.892Z,62.3
2023-02-24T05:17:13.769Z,62.2
2023-02-24T05:18:17.435Z,62.2
2023-02-24T05:19:19.686Z,62.2
2023-02-24T05:20:23.018Z,62.4
2023-02-24T05:21:26.856Z,62.3
2023-02-24T05:22:31.259Z,62.2
2023-02-24T05:23:38.933Z,62.2
2023-02-24T05:24:42.810Z,62.2
2023-02-24T05:25:47.199Z,62.3
2023-02-24T05:26:52.902Z,62.3
2023-02-24T05:27:57.046Z,62.3
2023-02-24T05:29:02.142Z,62.4
2023-02-24T05:30:03.249Z,62
2023-02-24T05:31:07.149Z,62.4
2023-02-24T05:32:10.743Z,62.4
2023-02-24T05:33:12.223Z,62.4
2023-02-24T05:34:16.378Z,62.3
2023-02-24T05:35:18.340Z,62.2
2023-02-24T05:36:21.654Z,62.2
2023-02-24T05:37:24.922Z,62.1
2023-02-24T05:38:27.158Z,62.4
2023-02-24T05:39:29.378Z,62.8
2023-02-24T05:40:31.316Z,62.8
2023-02-24T05:41:34.456Z,62.7
2023-02-24T05:42:39.107Z,62.8
2023-02-24T05:43:43.386Z,63
2023-02-24T05:44:46.563Z,62.9
2023-02-24T05:45:49.638Z,62.8
2023-02-24T05:46:54.899Z,62.6
2023-02-24T05:47:57.534Z,62.7
2023-02-24T05:49:02.056Z,63
2023-02-24T05:50:06.944Z,63.2
2023-02-24T05:51:12.018Z,63.2
2023-02-24T05:52:15.734Z,63.2
2023-02-24T05:53:20.460Z,63.2
2023-02-24T05:54:23.223Z,63.3
2023-02-24T05:55:25.815Z,63.2
2023-02-24T05:56:27.944Z,63.2
2023-02-24T05:57:31.474Z,63.4
2023-02-24T05:58:36.630Z,64.1
2023-02-24T05:59:40.241Z,64.8
2023-02-24T06:00:45.413Z,65.8
2023-02-24T06:01:47.210Z,66.2
2023-02-24T06:02:50.155Z,66.2
2023-02-24T06:03:54.939Z,65.9
2023-02-24T06:04:57.933Z,65.5
2023-02-24T06:06:02.193Z,65.2
2023-02-24T06:07:06.055Z,64.9
2023-02-24T06:08:07.113Z,64.9
2023-02-24T06:09:10.842Z,64.7
2023-02-24T06:10:15.719Z,64.7
2023-02-24T06:11:19.644Z,64.3
2023-02-24T06:12:25.236Z,63.9
2023-02-24T06:13:28.953Z,64.4
2023-02-24T06:14:31.554Z,64.8
2023-02-24T06:15:34.404Z,64.6
2023-02-24T06:16:38.066Z,65
2023-02-24T06:17:39.792Z,64.9
2023-02-24T06:18:45.922Z,64.7
2023-02-24T06:19:50.314Z,64.7
2023-02-24T06:20:56.399Z,64.8
2023-02-24T06:22:03.446Z,64.8
2023-02-24T06:23:07.735Z,64.9
2023-02-24T06:24:11.998Z,66.1
2023-02-24T06:25:17.437Z,66.8
2023-02-24T06:26:21.434Z,66
2023-02-24T06:27:25.198Z,65.7
2023-02-24T06:28:27.577Z,65.6
2023-02-24T06:29:31.097Z,65.5
2023-02-24T06:30:33.425Z,65.6
2023-02-24T06:31:36.021Z,65.4
2023-02-24T06:32:38.623Z,65.4
2023-02-24T06:33:40.385Z,66.1
2023-02-24T06:34:42.456Z,66.6
2023-02-24T06:35:44.857Z,65.7
2023-02-24T06:36:46.723Z,65
2023-02-24T06:37:49.490Z,64.8
2023-02-24T06:38:51.438Z,64.3
2023-02-24T06:39:55.218Z,64.4
2023-02-24T06:40:57.942Z,64.2
2023-02-24T06:42:00.760Z,64.2
2023-02-24T06:43:03.378Z,64.5
2023-02-24T06:44:05.250Z,64.8
2023-02-24T06:45:08.061Z,64.8
2023-02-24T06:46:10.765Z,64.8
2023-02-24T06:47:12.759Z,64.7
2023-02-24T06:48:14.759Z,65
2023-02-24T06:49:17.181Z,64.8
2023-02-24T06:50:20.194Z,64.9
2023-02-24T06:51:23.418Z,64.9
2023-02-24T06:52:24.219Z,64.7
2023-02-24T06:53:25.299Z,64.4
2023-02-24T06:54:27.662Z,64.3
2023-02-24T06:55:30.881Z,64
2023-02-24T06:56:33.155Z,64.3
2023-02-24T06:57:35.062Z,64.5
2023-02-24T06:58:36.820Z,64.3
2023-02-24T06:59:39.058Z,63.9
2023-02-24T07:00:40.896Z,63.5
2023-02-24T07:01:42.199Z,63.5
2023-02-24T07:02:45.445Z,63.6
2023-02-24T07:03:50.440Z,64
2023-02-24T07:04:55.060Z,64.6
2023-02-24T07:05:58.971Z,65.1
2023-02-24T07:07:04.834Z,65.6
2023-02-24T07:08:10.951Z,66.1
2023-02-24T07:09:12.224Z,66.5
2023-02-24T07:10:17.715Z,66.7
2023-02-24T07:11:22.812Z,67.3
2023-02-24T07:12:25.205Z,67.5
2023-02-24T07:13:26.998Z,67.2
2023-02-24T07:14:30.874Z,67
2023-02-24T07:15:34.466Z,66.9
2023-02-24T07:16:38.971Z,66.4
2023-02-24T07:17:41.044Z,66.6
2023-02-24T07:18:44.341Z,66.4
2023-02-24T07:19:48.859Z,66
2023-02-24T07:20:56.280Z,65.8
2023-02-24T07:21:57.177Z,65.6
2023-02-24T07:23:00.737Z,65.6
2023-02-24T07:24:03.878Z,65.8
2023-02-24T07:25:07.345Z,65.8
2023-02-24T07:26:10.799Z,65.8
2023-02-24T07:27:14.520Z,65.7
2023-02-24T07:28:21.849Z,65.7
2023-02-24T07:29:25.917Z,65.7
2023-02-24T07:30:29.746Z,65.3
2023-02-24T07:31:36.886Z,65
2023-02-24T07:32:39.213Z,64.8
2023-02-24T07:33:41.587Z,64.8
2023-02-24T07:34:43.297Z,64.8
2023-02-24T07:35:45.300Z,64.9
2023-02-24T07:36:47.638Z,65
2023-02-24T07:37:52.116Z,64.8
2023-02-24T07:38:54.809Z,64.7
2023-02-24T07:39:56.600Z,64.3
2023-02-24T07:40:58.640Z,64.3
2023-02-24T07:42:01.331Z,64.3
2023-02-24T07:43:03.697Z,64.6
2023-02-24T07:44:05.280Z,64.6
2023-02-24T07:45:08.603Z,63.7
2023-02-24T07:46:11.213Z,64
2023-02-24T07:47:12.314Z,64
2023-02-24T07:48:13.494Z,64
2023-02-24T07:49:14.225Z,64.1
2023-02-24T07:50:15.419Z,64.3
2023-02-24T07:51:16.347Z,64.3
2023-02-24T07:52:17.214Z,64.3
2023-02-24T07:53:19.260Z,64
2023-02-24T07:54:21.771Z,64.2
2023-02-24T07:55:24.008Z,64.3
2023-02-24T07:56:26.135Z,64.2
2023-02-24T07:57:28.087Z,64
2023-02-24T07:58:30.356Z,63.9
2023-02-24T07:59:31.396Z,63.1
2023-02-24T08:00:33.813Z,63.2
2023-02-24T08:01:37.689Z,62.9
2023-02-24T08:02:42.240Z,62.6
2023-02-24T08:03:44.397Z,62.4
2023-02-24T08:04:47.310Z,62.3
2023-02-24T08:05:48.805Z,62
2023-02-24T08:06:51.541Z,62.2
2023-02-24T08:07:54.910Z,62.3
2023-02-24T08:08:59.696Z,62.3
2023-02-24T08:10:02.810Z,62.7
2023-02-24T08:11:04.772Z,62.7
2023-02-24T08:12:07.880Z,62.7
2023-02-24T08:13:11.349Z,62.4
2023-02-24T08:14:15.114Z,62.3
2023-02-24T08:15:16.240Z,62.9
2023-02-24T08:16:18.174Z,62.4
2023-02-24T08:17:19.871Z,62.3
2023-02-24T08:18:22.243Z,62.3
2023-02-24T08:19:24.588Z,62.3
2023-02-24T08:20:27.026Z,63
2023-02-24T08:21:29.230Z,63.5
2023-02-24T08:22:31.118Z,63.6
2023-02-24T08:23:33.099Z,63.8
2023-02-24T08:24:34.334Z,64.6
2023-02-24T08:25:36.554Z,65.1
2023-02-24T08:26:37.131Z,65.1
2023-02-24T08:27:39.374Z,65.1
2023-02-24T08:28:40.133Z,65.2
2023-02-24T08:29:41.893Z,65.4
2023-02-24T08:30:44.717Z,65.9
2023-02-24T08:31:47.200Z,66.5
2023-02-24T08:32:49.598Z,66.7
2023-02-24T08:33:52.353Z,66.8
2023-02-24T08:34:53.854Z,66.6
2023-02-24T08:35:56.452Z,66.5
2023-02-24T08:36:59.470Z,66.4
2023-02-24T08:38:02.094Z,66.3
2023-02-24T08:39:03.818Z,66
2023-02-24T08:40:06.153Z,65.9
2023-02-24T08:41:08.203Z,66
2023-02-24T08:42:10.175Z,65.9
2023-02-24T08:43:12.223Z,65.9
2023-02-24T08:44:15.014Z,65.7
2023-02-24T08:45:16.802Z,65.1
2023-02-24T08:46:19.529Z,64.7
2023-02-24T08:47:21.959Z,64.6
2023-02-24T08:48:23.924Z,64.6
2023-02-24T08:49:26.018Z,64.4
2023-02-24T08:50:27.954Z,63.9
2023-02-24T08:51:29.960Z,63.8
2023-02-24T08:52:32.531Z,63.5
2023-02-24T08:53:33.718Z,63.8
2023-02-24T08:54:35.815Z,64.2
2023-02-24T08:55:38.622Z,64.3
2023-02-24T08:56:41.051Z,64.5
2023-02-24T08:57:43.180Z,64.6
2023-02-24T08:58:44.689Z,64.5
2023-02-24T08:59:46.939Z,64.5
2023-02-24T09:00:50.041Z,64.8
2023-02-24T09:02:02.777Z,65.2
2023-02-24T09:02:56.388Z,65.3
2023-02-24T09:03:58.254Z,65.2
2023-02-24T09:04:59.386Z,64.9
2023-02-24T09:06:00.404Z,64.4
2023-02-24T09:07:11.407Z,64.2
2023-02-24T09:08:06.122Z,64.1
2023-02-24T09:09:08.249Z,63.9
2023-02-24T09:10:15.072Z,63.5
2023-02-24T09:11:17.497Z,63.1
2023-02-24T09:12:19.980Z,63.4
2023-02-24T09:13:22.092Z,63.8
2023-02-24T09:14:27.846Z,63.9
2023-02-24T09:15:26.190Z,63.4
2023-02-24T09:16:28.074Z,63.4
2023-02-24T09:17:31.366Z,64
2023-02-24T09:18:33.718Z,64.4
2023-02-24T09:19:35.272Z,64.4
2023-02-24T09:20:36.910Z,63.9
2023-02-24T09:21:39.430Z,63.7
2023-02-24T09:22:41.815Z,64.4
2023-02-24T09:23:44.720Z,63.9
2023-02-24T09:24:47.521Z,64.5
2023-02-24T09:25:50.519Z,64.6
2023-02-24T09:26:52.670Z,64.6
2023-02-24T09:27:56.305Z,64.5
2023-02-24T09:28:58.939Z,64.2
2023-02-24T09:30:00.402Z,63.7
2023-02-24T09:31:02.924Z,63.1
2023-02-24T09:32:04.522Z,63
2023-02-24T09:33:07.211Z,63.5
2023-02-24T09:34:10.480Z,63.8
2023-02-24T09:35:14.308Z,64
2023-02-24T09:36:16.800Z,64
2023-02-24T09:37:19.340Z,63.8
2023-02-24T09:38:21.879Z,63.4
2023-02-24T09:39:23.237Z,63.3
2023-02-24T09:40:25.600Z,63.1
2023-02-24T09:41:29.134Z,62.8
2023-02-24T09:42:33.188Z,62.4
2023-02-24T09:43:36.179Z,62.2
2023-02-24T09:44:40.402Z,62
2023-02-24T09:45:43.940Z,61.3
2023-02-24T09:46:45.387Z,61.8
2023-02-24T09:47:48.541Z,61.7
2023-02-24T09:48:51.084Z,61.7
2023-02-24T09:49:53.359Z,61.3
2023-02-24T09:51:02.985Z,60.7
2023-02-24T09:51:58.346Z,60.6
2023-02-24T09:53:09.758Z,60.4
2023-02-24T09:54:02.277Z,60.6
2023-02-24T09:55:04.254Z,61.2
2023-02-24T09:56:06.548Z,61.8
2023-02-24T09:57:09.896Z,62.6
2023-02-24T09:58:13.030Z,62.7
2023-02-24T09:59:15.222Z,62.8
2023-02-24T10:00:17.465Z,62.7
2023-02-24T10:01:21.468Z,62
2023-02-24T10:02:22.248Z,62.7
2023-02-24T10:03:24.514Z,63.1
2023-02-24T10:04:25.308Z,63.2
2023-02-24T10:05:27.688Z,63.5
2023-02-24T10:06:31.068Z,63.7
2023-02-24T10:07:33.470Z,63.5
2023-02-24T10:08:36.741Z,62.7
2023-02-24T10:09:38.770Z,62.3
2023-02-24T10:10:41.355Z,62.4
2023-02-24T10:11:43.455Z,62.6
2023-02-24T10:12:45.696Z,62
2023-02-24T10:13:48.861Z,61.9
2023-02-24T10:14:51.618Z,62.1
2023-02-24T10:15:58.662Z,62.4
2023-02-24T10:16:57.816Z,62.7
2023-02-24T10:18:01.617Z,62.8
2023-02-24T10:19:04.396Z,62.6
2023-02-24T10:20:06.938Z,62.7
2023-02-24T10:21:09.084Z,62.6
2023-02-24T10:22:10.995Z,62.3
2023-02-24T10:23:12.321Z,62.1
2023-02-24T10:24:13.546Z,62.2
2023-02-24T10:25:21.041Z,62.3
2023-02-24T10:26:17.779Z,62.4
2023-02-24T10:27:21.209Z,62.6
2023-02-24T10:28:23.573Z,62.7
2023-02-24T10:29:25.424Z,62.7
2023-02-24T10:30:27.387Z,62.5
2023-02-24T10:31:28.972Z,62.3
2023-02-24T10:32:30.827Z,61.9
2023-02-24T10:33:33.416Z,61.4
2023-02-24T10:34:35.563Z,61.1
2023-02-24T10:35:38.412Z,61
2023-02-24T10:36:40.807Z,60.5
2023-02-24T10:37:44.566Z,60.4
2023-02-24T10:38:47.833Z,60.4
2023-02-24T10:39:52.016Z,60.1
2023-02-24T10:40:53.622Z,59.1
2023-02-24T10:41:55.418Z,58.5
2023-02-24T10:42:56.893Z,57.5
2023-02-24T10:44:00.072Z,57.3
2023-02-24T10:45:03.330Z,57.3
2023-02-24T10:46:07.102Z,57.3
2023-02-24T10:47:10.589Z,57.6
2023-02-24T10:48:15.494Z,58.9
2023-02-24T10:49:17.195Z,59.4
2023-02-24T10:50:19.221Z,58.4
2023-02-24T10:51:22.826Z,58.8
2023-02-24T10:52:23.962Z,58.9
2023-02-24T10:53:26.623Z,59.2
2023-02-24T10:54:28.404Z,59
2023-02-24T10:55:29.522Z,58.2
2023-02-24T10:56:31.203Z,57.7
2023-02-24T10:57:33.523Z,57.6
2023-02-24T10:58:36.305Z,57.5
2023-02-24T10:59:38.477Z,57.7
2023-02-24T11:00:41.027Z,57.3
2023-02-24T11:01:43.998Z,58.1
2023-02-24T11:02:46.777Z,58.5
2023-02-24T11:03:48.827Z,59.4
2023-02-24T11:04:51.528Z,59.7
2023-02-24T11:05:53.317Z,59.4
2023-02-24T11:06:55.969Z,58.8
2023-02-24T11:07:58.991Z,58.1
2023-02-24T11:09:01.403Z,57.9
2023-02-24T11:10:03.598Z,57.4
2023-02-24T11:11:07.190Z,56.6
2023-02-24T11:12:10.025Z,56
2023-02-24T11:13:12.733Z,55.8
2023-02-24T11:14:15.699Z,56
2023-02-24T11:15:17.340Z,56.1
2023-02-24T11:16:20.912Z,55.6
2023-02-24T11:17:23.336Z,55.8
2023-02-24T11:18:25.561Z,56.1
2023-02-24T11:19:27.371Z,56.2
2023-02-24T11:20:39.161Z,55.7
2023-02-24T11:21:31.558Z,55.6
2023-02-24T11:22:34.304Z,55.4
2023-02-24T11:23:37.139Z,55.1
2023-02-24T11:24:39.754Z,55.8
2023-02-24T11:25:42.634Z,56.4
2023-02-24T11:26:44.282Z,56.7
2023-02-24T11:27:46.840Z,56.4
2023-02-24T11:28:49.447Z,56.8
2023-02-24T11:29:51.378Z,56.9
2023-02-24T11:30:54.715Z,56.9
2023-02-24T11:31:56.445Z,57.1
2023-02-24T11:32:58.479Z,57.5
2023-02-24T11:34:00.177Z,58
2023-02-24T11:35:02.677Z,57.6
2023-02-24T11:36:05.382Z,57.6
2023-02-24T11:37:07.747Z,57.8
2023-02-24T11:38:10.503Z,57.4
2023-02-24T11:39:19.621Z,56.6
2023-02-24T11:40:15.040Z,56.5
2023-02-24T11:41:16.318Z,56.4
2023-02-24T11:42:18.840Z,56.5
2023-02-24T11:43:22.003Z,56.3
2023-02-24T11:44:24.358Z,56.5
2023-02-24T11:45:27.469Z,56.2
2023-02-24T11:46:28.500Z,55.8
2023-02-24T11:47:30.590Z,55.7
2023-02-24T11:48:32.377Z,55.4
2023-02-24T11:49:35.622Z,55.4
2023-02-24T11:50:38.699Z,54.5
2023-02-24T11:51:42.820Z,54
2023-02-24T11:52:46.525Z,53.9
2023-02-24T11:53:48.977Z,54.6
2023-02-24T11:54:51.009Z,55.6
2023-02-24T11:55:52.326Z,55.8
2023-02-24T11:56:54.660Z,56
2023-02-24T11:57:58.136Z,55.9
2023-02-24T11:59:01.287Z,55.8
2023-02-24T12:00:03.605Z,55.5
2023-02-24T12:01:06.299Z,55.7
2023-02-24T12:02:08.547Z,55.7
2023-02-24T12:03:11.824Z,55.3
2023-02-24T12:04:15.806Z,55
2023-02-24T12:05:17.309Z,54.5
2023-02-24T12:06:19.638Z,55
2023-02-24T12:07:23.058Z,55
2023-02-24T12:08:26.792Z,54.6
2023-02-24T12:09:29.605Z,54.8
2023-02-24T12:10:33.153Z,54.9
2023-02-24T12:11:35.281Z,54.5
2023-02-24T12:12:36.896Z,54.8
2023-02-24T12:13:40.034Z,55
2023-02-24T12:14:42.458Z,55.2
2023-02-24T12:15:45.919Z,54.8
2023-02-24T12:16:48.262Z,54.4
2023-02-24T12:17:49.439Z,54.3
2023-02-24T12:18:52.040Z,54.5
2023-02-24T12:19:54.105Z,54.5
2023-02-24T12:21:00.290Z,54.2
2023-02-24T12:22:03.113Z,54.1
2023-02-24T12:23:06.078Z,53.9
2023-02-24T12:24:09.030Z,53.5
2023-02-24T12:25:10.362Z,53.8
2023-02-24T12:26:11.378Z,53.6
2023-02-24T12:27:12.334Z,53.6
2023-02-24T12:28:15.303Z,53.2
2023-02-24T12:29:20.447Z,53.1
2023-02-24T12:30:21.163Z,53.3
2023-02-24T12:31:23.293Z,53.4
2023-02-24T12:32:27.633Z,53.1
2023-02-24T12:33:31.730Z,53
2023-02-24T12:34:33.836Z,52.9
2023-02-24T12:35:35.417Z,52.7
2023-02-24T12:36:36.507Z,52.7
2023-02-24T12:37:37.797Z,53.1
2023-02-24T12:38:39.409Z,53.2
2023-02-24T12:39:40.715Z,52.8
2023-02-24T12:40:42.445Z,51.9
2023-02-24T12:41:43.366Z,52.5
2023-02-24T12:42:44.379Z,52.5
2023-02-24T12:43:45.337Z,51.7
2023-02-24T12:44:46.263Z,51.3
2023-02-24T12:45:51.097Z,51.4
2023-02-24T12:46:56.397Z,51.5
2023-02-24T12:48:01.860Z,52.2
2023-02-24T12:49:05.715Z,51.9
2023-02-24T12:50:08.912Z,51.9
2023-02-24T12:51:10.384Z,52
2023-02-24T12:52:11.550Z,52.5
2023-02-24T12:53:12.371Z,52.6
2023-02-24T12:54:13.558Z,52.8
2023-02-24T12:55:14.481Z,52.2
2023-02-24T12:56:17.041Z,52.1
2023-02-24T12:57:18.448Z,52.6
2023-02-24T12:58:19.405Z,53.5
2023-02-24T12:59:20.274Z,53.8
2023-02-24T13:00:21.285Z,53.5
2023-02-24T13:01:22.714Z,53
2023-02-24T13:02:23.435Z,54
2023-02-24T13:03:24.401Z,53.8
2023-02-24T13:04:25.293Z,53.7
2023-02-24T13:05:30.877Z,52.7
2023-02-24T13:06:34.661Z,52.1
2023-02-24T13:07:42.720Z,51.5
2023-02-24T13:08:50.985Z,51.6
2023-02-24T13:09:54.974Z,51.6
2023-02-24T13:10:56.615Z,51.4
2023-02-24T13:12:00.423Z,50.8
2023-02-24T13:13:04.292Z,51.2
2023-02-24T13:14:06.096Z,51.5
2023-02-24T13:15:07.384Z,51.8
2023-02-24T13:16:08.466Z,50.7
2023-02-24T13:17:10.978Z,50.5
2023-02-24T13:18:13.137Z,50.1
2023-02-24T13:19:15.053Z,50.2
2023-02-24T13:20:16.833Z,50.2
2023-02-24T13:21:18.544Z,50.1
2023-02-24T13:22:21.943Z,49.8
2023-02-24T13:23:23.740Z,50.2
2023-02-24T13:24:25.527Z,49.8
2023-02-24T13:25:27.473Z,50
2023-02-24T13:26:28.392Z,49.9
2023-02-24T13:27:29.600Z,50
2023-02-24T13:28:30.844Z,49.8
2023-02-24T13:29:36.231Z,48.9
2023-02-24T13:30:40.206Z,48.5
2023-02-24T13:31:41.943Z,49.3
2023-02-24T13:32:43.903Z,48.7
2023-02-24T13:33:46.558Z,48.9
2023-02-24T13:34:48.493Z,48.7
2023-02-24T13:35:49.420Z,48.5
2023-02-24T13:36:50.736Z,48.8
2023-02-24T13:37:52.736Z,48.8
2023-02-24T13:38:57.364Z,47.9
2023-02-24T13:40:03.188Z,47.6
2023-02-24T13:41:07.274Z,47.9
2023-02-24T13:42:12.706Z,48
2023-02-24T13:43:19.336Z,48.3
2023-02-24T13:44:22.515Z,48.2
2023-02-24T13:45:27.934Z,48.1
2023-02-24T13:46:31.822Z,48.4
2023-02-24T13:47:37.530Z,48.9
2023-02-24T13:48:46.235Z,48.7
2023-02-24T13:49:55.401Z,48.5
2023-02-24T13:50:57.985Z,48.1
2023-02-24T13:52:03.402Z,48
2023-02-24T13:53:09.164Z,48.5
2023-02-24T13:54:10.488Z,49.4
2023-02-24T13:55:11.535Z,49.6
2023-02-24T13:56:13.577Z,49.3
2023-02-24T13:57:14.504Z,48.7
2023-02-24T13:58:15.582Z,48.6
2023-02-24T13:59:16.523Z,48.6
2023-02-24T14:00:17.653Z,47.4
2023-02-24T14:01:20.298Z,47.3
2023-02-24T14:02:22.130Z,48
2023-02-24T14:03:24.460Z,47.9
2023-02-24T14:04:29.506Z,48.1